createdAt,value
2019-03-24T00:03:23.542Z,5.26
2019-03-24T00:08:31.161Z,4.97
2019-03-24T00:13:38.977Z,5.30
2019-03-24T00:18:46.661Z,5.21
2019-03-24T00:23:54.391Z,5.31
2019-03-24T00:29:02.091Z,5.09
2019-03-24T00:34:09.857Z,4.52
2019-03-24T00:39:17.577Z,4.67
2019-03-24T00:44:25.156Z,4.62
2019-03-24T00:49:32.875Z,5.15
2019-03-24T00:54:40.569Z,4.71
2019-03-24T00:59:48.243Z,4.33
2019-03-24T01:04:55.833Z,4.15
2019-03-24T01:10:03.518Z,4.45
2019-03-24T01:15:11.169Z,4.75
2019-03-24T01:20:18.934Z,4.09
2019-03-24T01:25:26.555Z,4.04
2019-03-24T01:30:34.986Z,3.94
2019-03-24T01:35:42.778Z,4.16
2019-03-24T01:40:50.473Z,3.95
2019-03-24T01:45:58.949Z,3.80
2019-03-24T01:51:05.417Z,4.05
2019-03-24T01:56:13.025Z,4.08
2019-03-24T02:01:20.713Z,3.85
2019-03-24T02:06:28.536Z,4.25
2019-03-24T02:11:36.145Z,3.97
2019-03-24T02:16:43.807Z,3.74
2019-03-24T02:21:51.441Z,3.86
2019-03-24T02:26:59.172Z,4.01
2019-03-24T02:32:06.886Z,3.97
2019-03-24T02:37:14.629Z,3.72
2019-03-24T02:42:22.266Z,4.19
2019-03-24T02:47:30.710Z,4.33
2019-03-24T02:52:38.698Z,4.54
2019-03-24T02:57:46.531Z,4.38
2019-03-24T03:02:54.207Z,4.71
2019-03-24T03:08:01.966Z,5.35
2019-03-24T03:13:09.599Z,5.25
2019-03-24T03:18:17.330Z,5.48
2019-03-24T03:23:25.040Z,5.23
2019-03-24T03:28:32.727Z,5.16
2019-03-24T03:33:40.330Z,4.51
2019-03-24T03:38:48.022Z,4.56
2019-03-24T03:43:55.833Z,4.68
2019-03-24T03:49:03.550Z,4.10
2019-03-24T03:54:11.361Z,4.53
2019-03-24T03:59:19.095Z,4.53
2019-03-24T04:04:26.957Z,4.48
2019-03-24T04:09:34.690Z,4.16
2019-03-24T04:14:42.461Z,3.70
2019-03-24T04:19:50.151Z,4.28
2019-03-24T04:24:58.098Z,4.34
2019-03-24T04:30:05.747Z,4.15
2019-03-24T04:35:13.337Z,4.10
2019-03-24T04:40:21.013Z,4.32
2019-03-24T04:45:28.638Z,4.04
2019-03-24T04:50:36.522Z,4.53
2019-03-24T04:55:44.298Z,4.04
2019-03-24T05:00:52.173Z,4.00
2019-03-24T05:05:59.769Z,4.14
2019-03-24T05:11:07.594Z,4.23
2019-03-24T05:16:15.245Z,4.01
2019-03-24T05:21:23.026Z,4.36
2019-03-24T05:26:30.973Z,3.90
2019-03-24T05:31:38.784Z,3.95
2019-03-24T05:36:46.430Z,4.07
2019-03-24T05:41:54.131Z,3.91
2019-03-24T05:47:01.766Z,4.01
2019-03-24T05:52:09.433Z,4.29
2019-03-24T05:57:17.105Z,4.09
2019-03-24T06:02:24.945Z,4.24
2019-03-24T06:07:32.585Z,4.57
2019-03-24T06:12:40.321Z,3.88
2019-03-24T06:17:48.309Z,4.37
2019-03-24T06:22:56.042Z,4.80
2019-03-24T06:28:03.653Z,4.32
2019-03-24T06:33:11.446Z,4.39
2019-03-24T06:38:19.173Z,4.40
2019-03-24T06:43:26.941Z,4.12
2019-03-24T06:48:34.561Z,4.29
2019-03-24T06:53:42.310Z,4.43
2019-03-24T06:58:49.893Z,4.31
2019-03-24T07:03:57.641Z,3.90
2019-03-24T07:09:05.250Z,4.66
2019-03-24T07:14:12.963Z,4.83
2019-03-24T07:19:20.546Z,4.57
2019-03-24T07:24:28.373Z,4.96
2019-03-24T07:29:35.988Z,5.00
2019-03-24T07:34:44.285Z,5.14
2019-03-24T07:39:52.068Z,4.87
2019-03-24T07:44:59.821Z,4.88
2019-03-24T07:50:07.509Z,4.61
2019-03-24T07:55:15.158Z,5.06
2019-03-24T08:00:22.761Z,5.01
2019-03-24T08:05:30.533Z,4.81
2019-03-24T08:10:38.150Z,4.77
2019-03-24T08:15:45.796Z,4.62
2019-03-24T08:20:53.533Z,4.13
2019-03-24T08:26:01.309Z,3.97
2019-03-24T08:31:09.023Z,4.03
2019-03-24T08:36:17.441Z,4.54
2019-03-24T08:41:25.117Z,4.08
2019-03-24T08:46:32.849Z,3.81
2019-03-24T08:51:40.503Z,3.76
2019-03-24T08:56:48.125Z,3.45
2019-03-24T09:01:55.860Z,3.84
2019-03-24T09:07:03.639Z,3.55
2019-03-24T09:12:11.472Z,3.20
2019-03-24T09:17:19.163Z,3.37
2019-03-24T09:22:26.825Z,3.43
2019-03-24T09:27:34.561Z,3.83
2019-03-24T09:32:42.220Z,3.66
2019-03-24T09:37:49.924Z,4.55
2019-03-24T09:42:57.555Z,3.88
2019-03-24T09:48:05.209Z,3.93
2019-03-24T09:53:12.888Z,4.30
2019-03-24T09:58:20.672Z,4.42
2019-03-24T10:03:29.090Z,4.65
2019-03-24T10:08:46.822Z,4.85
2019-03-24T10:13:44.130Z,3.67
2019-03-24T10:18:52.203Z,3.50
2019-03-24T10:23:59.818Z,3.23
2019-03-24T10:29:07.507Z,2.54
2019-03-24T10:34:15.214Z,2.75
2019-03-24T10:39:23.005Z,3.03
2019-03-24T10:44:30.650Z,3.48
2019-03-24T10:49:38.349Z,3.40
2019-03-24T10:54:45.937Z,2.70
2019-03-24T10:59:53.628Z,2.62
2019-03-24T11:05:01.257Z,3.20
2019-03-24T11:10:09.055Z,2.90
2019-03-24T11:15:17.020Z,3.03
2019-03-24T11:20:25.600Z,2.85
2019-03-24T11:25:33.193Z,2.93
2019-03-24T11:30:40.796Z,2.88
2019-03-24T11:35:48.747Z,2.83
2019-03-24T11:40:56.842Z,3.18
2019-03-24T11:46:04.433Z,3.77
2019-03-24T11:51:12.132Z,2.55
2019-03-24T11:56:19.870Z,2.75
2019-03-24T12:01:37.758Z,2.72
2019-03-24T12:06:34.762Z,2.47
2019-03-24T12:11:42.426Z,2.31
2019-03-24T12:16:50.177Z,2.12
2019-03-24T12:21:57.994Z,2.17
2019-03-24T12:27:05.764Z,2.60
2019-03-24T12:32:15.547Z,2.59
2019-03-24T12:37:20.702Z,2.44
2019-03-24T12:42:28.325Z,2.41
2019-03-24T12:47:36.215Z,2.19
2019-03-24T12:52:43.846Z,2.15
2019-03-24T12:57:52.173Z,2.13
2019-03-24T13:02:59.897Z,1.96
2019-03-24T13:08:07.628Z,1.98
2019-03-24T13:13:15.278Z,2.19
2019-03-24T13:18:23.110Z,2.10
2019-03-24T13:23:30.824Z,2.17
2019-03-24T13:28:38.606Z,1.99
2019-03-24T13:33:46.390Z,2.01
2019-03-24T13:38:54.189Z,1.88
2019-03-24T13:44:01.904Z,2.06
2019-03-24T13:49:09.612Z,1.97
2019-03-24T13:54:17.346Z,2.54
2019-03-24T13:59:25.095Z,2.05
2019-03-24T14:04:32.688Z,2.27
2019-03-24T14:09:40.433Z,2.19
2019-03-24T14:14:48.153Z,2.57
2019-03-24T14:19:55.865Z,2.64
2019-03-24T14:25:03.669Z,2.72
2019-03-24T14:30:11.254Z,2.65
2019-03-24T14:35:19.161Z,2.49
2019-03-24T14:40:26.800Z,2.16
2019-03-24T14:45:35.404Z,3.67
2019-03-24T14:50:53.540Z,3.32
2019-03-24T14:56:03.893Z,2.94
2019-03-24T15:00:51.676Z,3.07
2019-03-24T15:05:59.278Z,3.15
2019-03-24T15:11:07.226Z,1.97
2019-03-24T15:16:14.904Z,2.17
2019-03-24T15:21:22.881Z,2.30
2019-03-24T15:26:31.945Z,2.25
2019-03-24T15:31:39.765Z,2.41
2019-03-24T15:36:48.586Z,2.23
2019-03-24T15:41:56.229Z,2.06
2019-03-24T15:47:03.829Z,1.96
2019-03-24T15:52:11.559Z,2.14
2019-03-24T15:57:20.161Z,2.01
2019-03-24T16:02:28.049Z,2.33
2019-03-24T16:07:35.754Z,2.55
2019-03-24T16:12:43.561Z,2.24
2019-03-24T16:17:52.054Z,1.89
2019-03-24T16:22:58.453Z,1.66
2019-03-24T16:28:07.143Z,1.34
2019-03-24T16:33:15.094Z,1.51
2019-03-24T16:38:22.792Z,1.60
2019-03-24T16:43:30.829Z,1.58
2019-03-24T16:48:38.544Z,1.27
2019-03-24T16:53:46.404Z,1.49
2019-03-24T16:58:54.064Z,1.48
2019-03-24T17:04:02.022Z,1.41
2019-03-24T17:09:09.651Z,1.35
2019-03-24T17:14:17.525Z,1.80
2019-03-24T17:19:25.359Z,1.64
2019-03-24T17:24:33.012Z,1.66
2019-03-24T17:29:40.744Z,2.01
2019-03-24T17:34:48.583Z,1.40
2019-03-24T17:39:56.162Z,1.51
2019-03-24T17:45:03.925Z,1.63
2019-03-24T17:50:12.158Z,1.70
2019-03-24T17:55:27.228Z,1.49
2019-03-24T18:00:26.353Z,1.79
2019-03-24T18:05:34.067Z,2.52
2019-03-24T18:10:41.682Z,3.58
2019-03-24T18:15:49.461Z,3.82
2019-03-24T18:20:57.229Z,3.38
2019-03-24T18:26:04.849Z,2.28
2019-03-24T18:31:12.457Z,2.06
2019-03-24T18:36:20.105Z,1.88
2019-03-24T18:41:28.565Z,3.55
2019-03-24T18:46:36.226Z,2.40
2019-03-24T18:51:45.136Z,1.87
2019-03-24T18:56:53.174Z,2.16
2019-03-24T19:02:00.861Z,1.68
2019-03-24T19:07:08.533Z,1.87
2019-03-24T19:12:16.217Z,1.83
2019-03-24T19:17:24.034Z,2.07
2019-03-24T19:22:33.740Z,2.36
2019-03-24T19:27:40.231Z,2.34
2019-03-24T19:32:48.057Z,2.48
2019-03-24T19:37:55.710Z,2.42
2019-03-24T19:43:03.344Z,2.08
2019-03-24T19:48:11.268Z,2.16
2019-03-24T19:53:19.154Z,2.45
2019-03-24T19:58:26.974Z,2.23
2019-03-24T20:03:34.738Z,2.19
2019-03-24T20:08:42.510Z,2.27
2019-03-24T20:13:50.170Z,2.49
2019-03-24T20:18:57.868Z,2.76
2019-03-24T20:24:07.522Z,3.28
2019-03-24T20:29:15.348Z,3.33
2019-03-24T20:34:23.057Z,3.74
2019-03-24T20:39:31.837Z,3.70
2019-03-24T20:44:39.434Z,3.67
2019-03-24T20:49:47.112Z,3.33
2019-03-24T20:54:54.929Z,3.60
2019-03-24T21:00:02.784Z,3.08
2019-03-24T21:05:11.231Z,3.21
2019-03-24T21:10:18.557Z,3.49
2019-03-24T21:15:26.258Z,3.50
2019-03-24T21:20:33.956Z,3.46
2019-03-24T21:25:41.673Z,3.38
2019-03-24T21:30:49.519Z,3.97
2019-03-24T21:35:57.176Z,3.70
2019-03-24T21:41:05.145Z,3.13
2019-03-24T21:46:12.912Z,3.12
2019-03-24T21:51:20.839Z,3.40
2019-03-24T21:56:28.660Z,3.13
2019-03-24T22:01:36.408Z,3.32
2019-03-24T22:06:45.170Z,4.72
2019-03-24T22:11:53.005Z,3.21
2019-03-24T22:17:00.678Z,3.49
2019-03-24T22:22:08.344Z,4.59
2019-03-24T22:27:17.360Z,3.47
2019-03-24T22:32:25.013Z,3.48
2019-03-24T22:37:32.724Z,3.08
2019-03-24T22:42:40.420Z,2.95
2019-03-24T22:47:48.020Z,3.17
2019-03-24T22:52:56.636Z,3.14
2019-03-24T22:58:04.409Z,3.17
2019-03-24T23:03:12.189Z,3.18
2019-03-24T23:08:19.802Z,2.87
2019-03-24T23:13:27.599Z,2.87
2019-03-24T23:18:35.541Z,2.80
2019-03-24T23:23:43.321Z,2.84
2019-03-24T23:28:50.937Z,2.89
2019-03-24T23:33:59.592Z,2.52
2019-03-24T23:39:07.210Z,2.99
2019-03-24T23:44:14.888Z,2.86
2019-03-24T23:49:22.675Z,3.05
2019-03-24T23:54:30.377Z,2.65
2019-03-24T23:59:38.060Z,3.12
